Time;durP1;ratioP1;P1;durP2;ratioP2;P2;SDS_P1;SDS_P2;PMS_P1;PMS_P2;Temp;Humidity;BMP_temperature;BMP_pressure;BME280_temperature;BME280_humidity;BME280_pressure;Samples;Min_cycle;Max_cycle;Signal;HPM_P1;HPM_P2
2021/06/10 00:00:24;;;;;;;1.52;1.42;;;23.70;55.40;;;;;;5116063;28;20204;-60
2021/06/10 00:02:49;;;;;;;1.13;1.13;;;23.70;56.00;;;;;;5116417;28;20181;-60
2021/06/10 00:05:17;;;;;;;3.10;1.50;;;23.70;55.40;;;;;;5116679;28;20180;-61
2021/06/10 00:07:43;;;;;;;1.58;1.48;;;23.70;55.40;;;;;;5115765;28;20174;-61
2021/06/10 00:10:13;;;;;;;1.70;1.60;;;23.70;55.40;;;;;;5116844;28;20173;-60
2021/06/10 00:12:39;;;;;;;1.40;1.30;;;23.70;55.40;;;;;;5116303;28;20544;-60
2021/06/10 00:15:12;;;;;;;1.65;1.55;;;23.70;55.40;;;;;;5115691;28;20687;-60
2021/06/10 00:17:38;;;;;;;1.60;1.50;;;23.60;55.30;;;;;;5116257;28;20188;-60
2021/06/10 00:20:05;;;;;;;1.42;1.33;;;23.60;55.40;;;;;;5115534;28;20213;-60
2021/06/10 00:22:30;;;;;;;2.35;1.50;;;23.60;55.40;;;;;;5116184;28;20200;-60
2021/06/10 00:24:56;;;;;;;1.90;1.58;;;23.60;55.40;;;;;;5116136;28;20643;-60
2021/06/10 00:27:21;;;;;;;1.30;1.30;;;23.60;55.30;;;;;;5115495;28;20169;-60
2021/06/10 00:29:48;;;;;;;2.83;1.60;;;23.60;55.40;;;;;;5115864;28;20260;-60
2021/06/10 00:32:14;;;;;;;1.50;1.40;;;23.60;55.30;;;;;;5115420;28;20181;-60
2021/06/10 00:34:40;;;;;;;1.35;1.25;;;23.60;55.40;;;;;;5115165;28;20661;-60
2021/06/10 00:37:05;;;;;;;2.08;1.50;;;23.60;55.40;;;;;;5116182;28;20210;-60
2021/06/10 00:39:31;;;;;;;1.52;1.42;;;23.60;55.40;;;;;;5115837;28;20243;-60
2021/06/10 00:41:56;;;;;;;1.33;1.23;;;23.60;55.40;;;;;;5115264;28;20653;-60
2021/06/10 00:44:22;;;;;;;1.30;1.20;;;23.60;55.40;;;;;;5116245;28;20645;-60
2021/06/10 00:46:47;;;;;;;1.23;1.10;;;23.60;55.40;;;;;;5115433;28;20176;-60
2021/06/10 00:49:13;;;;;;;1.48;1.38;;;23.60;55.40;;;;;;5114999;28;20181;-60
2021/06/10 00:51:39;;;;;;;1.60;1.50;;;23.50;55.30;;;;;;5115704;28;20177;-60
2021/06/10 00:54:05;;;;;;;1.48;1.38;;;23.50;55.30;;;;;;5115616;28;20177;-60
2021/06/10 00:56:30;;;;;;;1.17;1.10;;;23.50;55.30;;;;;;5114561;28;20354;-60
2021/06/10 00:58:56;;;;;;;1.30;1.20;;;23.60;55.40;;;;;;5115721;28;20193;-60
2021/06/10 01:01:21;;;;;;;1.20;1.20;;;23.50;55.40;;;;;;5115478;28;20260;-60
2021/06/10 01:03:47;;;;;;;1.17;1.08;;;23.50;55.30;;;;;;5114452;28;20649;-60
2021/06/10 01:06:25;;;;;;;1.20;1.10;;;23.50;55.30;;;;;;5115376;28;20196;-60
2021/06/10 01:09:08;;;;;;;1.38;1.27;;;23.50;55.30;;;;;;5097131;28;20184;-60
2021/06/10 01:12:03;;;;;;;1.30;1.20;;;23.50;55.30;;;;;;5115223;28;20177;-60
2021/06/10 01:15:06;;;;;;;1.30;1.20;;;23.50;55.40;;;;;;5115549;28;20177;-60
2021/06/10 01:17:32;;;;;;;1.40;1.30;;;23.50;55.40;;;;;;5098600;28;20191;-60
2021/06/10 01:20:02;;;;;;;1.45;1.27;;;23.50;55.40;;;;;;5096939;28;20599;-60
2021/06/10 01:22:27;;;;;;;1.45;1.35;;;23.50;55.40;;;;;;5115170;28;20165;-60
2021/06/10 01:25:14;;;;;;;1.60;1.42;;;23.50;55.40;;;;;;5114246;28;20176;-60
2021/06/10 01:27:48;;;;;;;1.88;1.27;;;23.50;55.40;;;;;;5114957;28;20268;-60
2021/06/10 01:30:21;;;;;;;1.42;1.33;;;23.40;55.40;;;;;;5114476;28;20289;-60
2021/06/10 01:33:07;;;;;;;1.35;1.25;;;23.50;55.40;;;;;;5114840;28;20170;-60
2021/06/10 01:35:39;;;;;;;1.30;1.20;;;23.50;55.40;;;;;;5080292;28;20230;-60
2021/06/10 01:38:05;;;;;;;1.27;1.17;;;23.50;55.40;;;;;;5114293;28;20260;-60
2021/06/10 01:40:30;;;;;;;1.48;1.38;;;23.50;55.40;;;;;;5096346;28;20311;-60
2021/06/10 01:42:56;;;;;;;1.40;1.30;;;23.40;55.40;;;;;;5096941;28;20172;-60
2021/06/10 01:45:21;;;;;;;1.25;1.25;;;23.40;55.40;;;;;;5095761;28;20180;-60
2021/06/10 01:47:47;;;;;;;1.38;1.27;;;23.40;55.40;;;;;;5096493;28;20577;-60
2021/06/10 01:50:14;;;;;;;1.40;1.30;;;23.40;55.40;;;;;;5096647;28;20603;-60
2021/06/10 01:52:40;;;;;;;1.23;1.13;;;23.40;55.40;;;;;;5095462;28;20653;-60
2021/06/10 01:55:07;;;;;;;1.00;1.00;;;23.40;55.40;;;;;;5096539;28;20264;-60
2021/06/10 01:57:33;;;;;;;1.35;1.13;;;23.40;55.40;;;;;;5095738;28;20221;-60
2021/06/10 01:59:59;;;;;;;1.30;1.20;;;23.40;55.40;;;;;;5095034;28;20296;-60
2021/06/10 02:02:25;;;;;;;1.00;1.00;;;23.40;55.40;;;;;;5096356;28;20184;-60
2021/06/10 02:04:50;;;;;;;1.48;1.10;;;23.40;56.10;;;;;;5096113;28;20177;-60
2021/06/10 02:07:16;;;;;;;1.02;1.02;;;23.40;55.40;;;;;;5095715;28;20210;-60
2021/06/10 02:09:42;;;;;;;1.40;1.30;;;23.30;55.40;;;;;;5095917;28;20256;-60
2021/06/10 02:12:08;;;;;;;1.40;1.30;;;23.40;55.40;;;;;;5095987;28;20252;-60
2021/06/10 02:14:33;;;;;;;1.38;1.17;;;23.40;55.40;;;;;;5095072;28;20259;-60
2021/06/10 02:16:59;;;;;;;1.27;1.20;;;23.40;55.40;;;;;;5095960;28;20175;-60
2021/06/10 02:19:24;;;;;;;1.50;1.38;;;23.30;55.30;;;;;;5095411;28;20299;-60
2021/06/10 02:21:50;;;;;;;1.42;1.20;;;23.30;55.30;;;;;;5113891;28;20532;-60
2021/06/10 02:24:16;;;;;;;1.13;1.13;;;23.30;55.30;;;;;;5114132;28;20173;-60
2021/06/10 02:26:41;;;;;;;1.40;1.30;;;23.30;55.30;;;;;;5112872;28;20173;-60
2021/06/10 02:29:07;;;;;;;1.27;1.17;;;23.30;55.30;;;;;;5113801;28;20177;-60
2021/06/10 02:31:33;;;;;;;1.30;1.20;;;23.30;56.00;;;;;;5113774;28;20172;-60
2021/06/10 02:33:58;;;;;;;1.00;1.00;;;23.30;55.30;;;;;;5113286;28;20195;-61
2021/06/10 02:36:26;;;;;;;1.20;1.15;;;23.30;55.30;;;;;;5095778;28;20177;-60
2021/06/10 02:38:54;;;;;;;1.00;1.00;;;23.30;55.30;;;;;;5095282;28;20284;-60
2021/06/10 02:41:21;;;;;;;1.05;0.98;;;23.20;55.30;;;;;;5095225;28;20181;-60
2021/06/10 02:43:48;;;;;;;1.00;1.00;;;23.30;55.30;;;;;;5095299;28;20573;-60
2021/06/10 02:46:14;;;;;;;1.00;1.00;;;23.30;55.40;;;;;;5095285;28;20627;-60
2021/06/10 02:48:39;;;;;;;1.30;1.20;;;23.20;55.30;;;;;;5094540;28;20176;-60
2021/06/10 02:51:05;;;;;;;1.30;1.20;;;23.20;55.30;;;;;;5095387;28;20246;-60
2021/06/10 02:53:31;;;;;;;1.20;1.10;;;23.30;55.30;;;;;;5095154;28;20669;-60
2021/06/10 02:55:58;;;;;;;1.38;1.20;;;23.20;55.30;;;;;;5094492;28;20180;-60
2021/06/10 02:58:24;;;;;;;1.20;1.20;;;23.20;55.30;;;;;;5095851;28;20177;-60
2021/06/10 03:00:49;;;;;;;1.38;1.27;;;23.20;55.30;;;;;;5094892;28;20212;-60
2021/06/10 03:03:15;;;;;;;1.95;1.35;;;23.30;55.30;;;;;;5094574;28;20165;-60
2021/06/10 03:05:41;;;;;;;1.27;1.17;;;23.20;55.20;;;;;;5095050;28;20234;-60
2021/06/10 03:08:10;;;;;;;1.38;1.30;;;23.20;55.30;;;;;;5095283;28;20180;-60
2021/06/10 03:10:36;;;;;;;1.10;1.10;;;23.20;55.30;;;;;;5095342;28;20176;-60
2021/06/10 03:13:01;;;;;;;1.20;1.20;;;23.20;55.30;;;;;;5099677;28;20172;-60
2021/06/10 03:15:27;;;;;;;2.63;1.35;;;23.20;55.30;;;;;;5099633;28;20176;-60
2021/06/10 03:17:53;;;;;;;1.13;1.10;;;23.20;55.30;;;;;;5098508;28;20253;-60
2021/06/10 03:20:18;;;;;;;1.30;1.20;;;23.10;55.30;;;;;;5099362;28;20300;-60
2021/06/10 03:22:44;;;;;;;1.00;1.00;;;23.20;55.20;;;;;;5116494;28;20193;-60
2021/06/10 03:25:10;;;;;;;1.25;1.15;;;23.10;55.30;;;;;;5117548;28;20181;-60
2021/06/10 03:27:35;;;;;;;1.02;1.00;;;23.20;55.30;;;;;;5116991;28;20230;-60
2021/06/10 03:30:01;;;;;;;1.40;1.30;;;23.20;55.30;;;;;;5098316;28;20275;-60
2021/06/10 03:32:26;;;;;;;1.10;1.10;;;23.10;55.20;;;;;;5117505;28;20200;-60
2021/06/10 03:34:55;;;;;;;1.00;1.00;;;23.10;55.30;;;;;;5117214;28;20191;-61
2021/06/10 03:37:22;;;;;;;1.10;1.00;;;23.10;55.20;;;;;;5098364;28;20181;-60
2021/06/10 03:39:47;;;;;;;1.30;1.20;;;23.10;55.20;;;;;;5098720;28;20248;-60
2021/06/10 03:42:13;;;;;;;1.00;1.00;;;23.10;55.20;;;;;;5098787;28;20211;-60
2021/06/10 03:44:38;;;;;;;0.95;0.95;;;23.10;55.20;;;;;;5098023;28;20533;-60
2021/06/10 03:47:04;;;;;;;2.03;1.02;;;23.10;55.20;;;;;;5098751;28;20690;-60
2021/06/10 03:49:31;;;;;;;1.02;1.02;;;23.10;55.20;;;;;;5098441;28;20165;-60
2021/06/10 03:51:57;;;;;;;1.50;1.40;;;23.10;55.20;;;;;;5098337;28;20260;-60
2021/06/10 03:54:23;;;;;;;1.40;1.30;;;23.10;55.20;;;;;;5116745;28;20590;-60
2021/06/10 03:56:48;;;;;;;1.33;1.23;;;23.10;55.20;;;;;;5098253;28;20281;-60
2021/06/10 03:59:14;;;;;;;1.63;1.00;;;23.10;55.10;;;;;;5116296;28;20205;-60
2021/06/10 04:01:40;;;;;;;1.50;1.40;;;23.10;55.10;;;;;;5116573;28;20185;-60
2021/06/10 04:04:05;;;;;;;1.55;1.45;;;23.10;55.10;;;;;;5116833;28;20244;-60
2021/06/10 04:06:35;;;;;;;1.85;1.33;;;23.10;55.10;;;;;;5115641;28;20177;-60
2021/06/10 04:09:07;;;;;;;1.55;1.45;;;23.10;55.10;;;;;;5098350;28;20592;-60
2021/06/10 04:11:32;;;;;;;1.00;1.00;;;23.10;55.10;;;;;;5098667;28;20506;-60
2021/06/10 04:13:59;;;;;;;1.50;1.40;;;23.10;55.10;;;;;;5115928;28;20183;-60
2021/06/10 04:16:25;;;;;;;1.33;1.20;;;23.10;55.10;;;;;;5116490;28;20208;-60
2021/06/10 04:18:53;;;;;;;1.25;1.15;;;23.10;55.10;;;;;;5115832;28;20689;-60
2021/06/10 04:21:19;;;;;;;1.20;1.20;;;23.10;55.00;;;;;;5115753;28;20541;-60
2021/06/10 04:23:44;;;;;;;1.15;1.10;;;23.10;55.10;;;;;;5115804;28;20169;-60
2021/06/10 04:26:10;;;;;;;1.27;1.20;;;23.10;55.10;;;;;;5115787;28;20371;-60
2021/06/10 04:28:35;;;;;;;1.58;1.30;;;23.10;55.10;;;;;;5116091;28;20627;-60
2021/06/10 04:31:01;;;;;;;1.40;1.30;;;23.10;55.00;;;;;;5116159;28;20539;-60
2021/06/10 04:33:27;;;;;;;1.17;1.13;;;23.10;55.10;;;;;;5115274;28;20172;-60
2021/06/10 04:35:52;;;;;;;1.30;1.20;;;23.10;55.00;;;;;;5115814;28;20173;-61
2021/06/10 04:38:18;;;;;;;1.20;1.10;;;23.10;55.00;;;;;;5115920;28;20509;-60
2021/06/10 04:40:43;;;;;;;3.53;1.75;;;23.10;55.10;;;;;;5114834;28;20208;-60
2021/06/10 04:43:09;;;;;;;1.33;1.23;;;23.10;55.00;;;;;;5115825;28;20178;-60
2021/06/10 04:45:35;;;;;;;1.05;1.05;;;23.10;55.10;;;;;;5115654;28;20177;-60
2021/06/10 04:48:00;;;;;;;1.40;1.20;;;23.10;55.10;;;;;;5115092;28;20173;-60
2021/06/10 04:50:27;;;;;;;1.00;1.00;;;23.10;55.10;;;;;;5115837;28;20205;-60
2021/06/10 04:52:53;;;;;;;2.45;1.40;;;23.10;55.10;;;;;;5115344;28;20173;-60
2021/06/10 04:55:20;;;;;;;1.10;1.00;;;23.10;55.10;;;;;;5114909;28;20169;-60
2021/06/10 04:57:45;;;;;;;1.15;1.15;;;23.10;55.10;;;;;;5107261;28;20226;-60
2021/06/10 05:00:12;;;;;;;1.35;1.30;;;23.10;55.10;;;;;;5075028;28;20252;-60
2021/06/10 05:02:37;;;;;;;1.23;1.13;;;23.10;55.10;;;;;;5073708;28;20575;-60
2021/06/10 05:05:04;;;;;;;1.65;1.42;;;23.10;55.10;;;;;;5074832;28;20202;-60
2021/06/10 05:07:30;;;;;;;1.55;1.45;;;23.10;55.10;;;;;;5074422;28;20620;-60
2021/06/10 05:09:55;;;;;;;1.60;1.50;;;23.10;55.10;;;;;;5074051;28;20201;-60
2021/06/10 05:12:21;;;;;;;1.30;1.20;;;23.10;55.20;;;;;;5074746;28;20170;-60
2021/06/10 05:14:46;;;;;;;1.73;1.17;;;23.10;55.20;;;;;;5074599;28;20174;-60
2021/06/10 05:17:12;;;;;;;1.33;1.30;;;23.10;55.20;;;;;;5074133;28;20171;-60
2021/06/10 05:19:37;;;;;;;1.10;1.10;;;23.10;55.20;;;;;;5074143;28;20198;-60
2021/06/10 05:22:03;;;;;;;1.25;1.20;;;23.10;55.20;;;;;;5074669;28;20206;-60
2021/06/10 05:24:29;;;;;;;1.42;1.33;;;23.10;55.20;;;;;;5073996;28;20640;-60
2021/06/10 05:26:55;;;;;;;1.33;1.27;;;23.10;55.20;;;;;;5074247;28;20247;-60
2021/06/10 05:29:20;;;;;;;1.38;1.10;;;23.10;55.20;;;;;;5073700;28;20175;-60
2021/06/10 05:31:46;;;;;;;1.25;1.20;;;23.10;55.20;;;;;;5074239;28;20181;-61
2021/06/10 05:34:11;;;;;;;1.35;1.25;;;23.10;55.20;;;;;;5073441;28;20174;-61
2021/06/10 05:36:37;;;;;;;1.20;1.20;;;23.20;55.30;;;;;;5073392;28;20178;-61
2021/06/10 05:39:03;;;;;;;1.40;1.30;;;23.10;55.30;;;;;;5074036;28;20652;-61
2021/06/10 05:41:28;;;;;;;1.65;1.55;;;23.10;55.30;;;;;;5074397;28;20183;-60
2021/06/10 05:43:54;;;;;;;2.20;1.48;;;23.10;55.30;;;;;;5073104;28;20539;-60
2021/06/10 05:46:20;;;;;;;1.40;1.30;;;23.10;55.30;;;;;;5074193;28;20174;-60
2021/06/10 05:48:46;;;;;;;1.55;1.40;;;23.20;55.40;;;;;;5073743;28;20185;-60
2021/06/10 05:51:12;;;;;;;1.60;1.50;;;23.20;55.40;;;;;;5073268;28;20265;-60
2021/06/10 05:53:38;;;;;;;1.58;1.48;;;23.10;55.40;;;;;;5073678;28;20193;-60
2021/06/10 05:56:03;;;;;;;1.50;1.40;;;23.10;55.30;;;;;;5078533;28;20640;-60
2021/06/10 05:58:29;;;;;;;1.40;1.30;;;23.20;55.40;;;;;;5113622;28;20190;-60
2021/06/10 06:00:54;;;;;;;1.23;1.13;;;23.10;55.40;;;;;;5114259;28;20244;-60
2021/06/10 06:03:21;;;;;;;1.48;1.38;;;23.20;55.40;;;;;;5114313;28;20165;-61
2021/06/10 06:05:47;;;;;;;1.55;1.45;;;23.20;55.30;;;;;;5113196;28;20259;-61
2021/06/10 06:08:13;;;;;;;1.60;1.50;;;23.20;55.30;;;;;;5114926;28;20264;-61
2021/06/10 06:10:39;;;;;;;1.88;1.45;;;23.20;55.40;;;;;;5114113;28;20180;-60
2021/06/10 06:13:07;;;;;;;1.40;1.30;;;23.20;55.30;;;;;;5113400;28;20174;-60
2021/06/10 06:15:32;;;;;;;1.67;1.58;;;23.20;55.30;;;;;;5113765;28;20173;-60
2021/06/10 06:17:58;;;;;;;1.42;1.30;;;23.20;55.40;;;;;;5114052;28;20173;-60
2021/06/10 06:20:23;;;;;;;1.17;1.17;;;23.20;55.30;;;;;;5113136;28;20204;-60
2021/06/10 06:22:49;;;;;;;1.33;1.25;;;23.20;55.30;;;;;;5113889;28;20246;-60
2021/06/10 06:25:15;;;;;;;1.45;1.35;;;23.20;55.30;;;;;;5114117;28;20681;-60
2021/06/10 06:27:41;;;;;;;1.50;1.40;;;23.20;55.30;;;;;;5112809;28;20264;-60
2021/06/10 06:30:07;;;;;;;1.63;1.52;;;23.20;55.20;;;;;;5113990;28;20264;-60
2021/06/10 06:32:36;;;;;;;1.40;1.30;;;23.20;55.20;;;;;;5112664;28;20216;-60
2021/06/10 06:35:05;;;;;;;1.60;1.50;;;23.20;55.20;;;;;;5113744;28;20213;-61
2021/06/10 06:37:30;;;;;;;1.50;1.40;;;23.20;55.20;;;;;;5113392;28;20527;-61
2021/06/10 06:39:56;;;;;;;1.58;1.38;;;23.20;55.20;;;;;;5112991;28;20208;-61
2021/06/10 06:42:21;;;;;;;1.40;1.30;;;23.30;55.30;;;;;;5113901;28;20201;-60
2021/06/10 06:44:47;;;;;;;1.92;1.50;;;23.20;55.20;;;;;;5113373;28;20177;-60
2021/06/10 06:47:12;;;;;;;1.98;1.42;;;23.20;55.20;;;;;;5112856;28;20194;-60
2021/06/10 06:49:38;;;;;;;1.42;1.30;;;23.20;55.20;;;;;;5113140;28;20222;-60
2021/06/10 06:52:04;;;;;;;1.48;1.38;;;23.20;55.20;;;;;;5113855;28;20177;-60
2021/06/10 06:54:29;;;;;;;1.65;1.55;;;23.20;55.20;;;;;;5094228;28;20173;-60
2021/06/10 06:56:55;;;;;;;1.80;1.48;;;23.30;55.20;;;;;;5113385;28;20213;-60
2021/06/10 06:59:20;;;;;;;1.63;1.52;;;23.30;55.20;;;;;;5113420;28;20235;-60
2021/06/10 07:01:46;;;;;;;1.52;1.42;;;23.30;55.20;;;;;;5112389;28;20175;-60
2021/06/10 07:04:11;;;;;;;1.60;1.50;;;23.30;55.20;;;;;;5113421;28;20215;-61
2021/06/10 07:06:37;;;;;;;1.23;1.23;;;23.30;55.30;;;;;;5113329;28;20169;-61
2021/06/10 07:09:03;;;;;;;1.60;1.50;;;23.30;55.20;;;;;;5112776;28;20169;-60
2021/06/10 07:11:28;;;;;;;1.50;1.40;;;23.30;55.30;;;;;;5113341;28;20545;-61
2021/06/10 07:13:54;;;;;;;1.65;1.50;;;23.30;55.20;;;;;;5112883;28;20694;-66
2021/06/10 07:16:19;;;;;;;1.75;1.60;;;23.30;55.20;;;;;;5094176;28;20173;-66
2021/06/10 07:18:45;;;;;;;1.67;1.52;;;23.40;55.30;;;;;;5112691;28;20176;-62
2021/06/10 07:21:10;;;;;;;3.83;1.67;;;23.40;55.60;;;;;;5113197;28;20173;-63
2021/06/10 07:23:36;;;;;;;2.67;1.40;;;23.40;55.40;;;;;;5112313;28;20623;-63
2021/06/10 07:26:01;;;;;;;2.03;1.60;;;23.40;55.40;;;;;;5113305;28;20188;-63
2021/06/10 07:28:27;;;;;;;2.72;1.95;;;23.40;55.40;;;;;;5113507;28;20192;-63
2021/06/10 07:30:52;;;;;;;2.10;1.90;;;23.40;55.40;;;;;;5112196;28;20200;-63
2021/06/10 07:33:19;;;;;;;1.80;1.70;;;23.40;55.60;;;;;;5112990;28;20180;-63
2021/06/10 07:35:44;;;;;;;1.80;1.70;;;23.40;55.60;;;;;;5112737;28;20634;-63
2021/06/10 07:38:10;;;;;;;1.98;1.63;;;23.50;55.50;;;;;;5112608;28;20215;-63
2021/06/10 07:40:36;;;;;;;2.08;1.80;;;23.50;55.50;;;;;;5111419;28;20315;-64
2021/06/10 07:43:02;;;;;;;3.22;1.80;;;23.50;55.40;;;;;;5112332;28;20213;-63
2021/06/10 07:45:28;;;;;;;4.13;1.70;;;23.50;55.40;;;;;;5112928;28;20257;-63
2021/06/10 07:47:53;;;;;;;1.85;1.67;;;23.50;55.40;;;;;;5112244;28;20181;-63
2021/06/10 07:50:19;;;;;;;2.45;1.48;;;23.50;55.40;;;;;;5109019;28;20176;-63
2021/06/10 07:52:44;;;;;;;3.25;1.92;;;23.60;55.50;;;;;;5113070;28;20169;-64
2021/06/10 07:55:10;;;;;;;3.78;2.17;;;23.60;55.60;;;;;;5113203;28;20173;-63
2021/06/10 07:57:36;;;;;;;2.17;1.75;;;23.60;55.60;;;;;;5114165;28;20244;-63
2021/06/10 08:00:06;;;;;;;2.70;1.60;;;23.60;55.50;;;;;;5116635;28;20654;-63
2021/06/10 08:02:31;;;;;;;2.67;1.55;;;23.60;55.50;;;;;;5116308;28;20643;-63
2021/06/10 08:04:57;;;;;;;2.38;1.83;;;23.60;55.50;;;;;;5116180;28;20174;-63
2021/06/10 08:07:22;;;;;;;2.33;2.00;;;23.60;55.50;;;;;;5116604;28;20549;-63
2021/06/10 08:09:48;;;;;;;2.38;1.50;;;23.60;55.60;;;;;;5116405;28;20177;-63
2021/06/10 08:12:13;;;;;;;1.60;1.50;;;23.60;55.60;;;;;;5115897;28;20257;-63
2021/06/10 08:14:39;;;;;;;1.77;1.60;;;23.60;55.60;;;;;;5116125;28;20181;-62
2021/06/10 08:17:05;;;;;;;1.95;1.58;;;23.70;55.60;;;;;;5116301;28;20176;-63
2021/06/10 08:19:31;;;;;;;2.72;1.80;;;23.70;55.60;;;;;;5115605;28;20286;-63
2021/06/10 08:21:56;;;;;;;3.42;1.85;;;23.70;55.60;;;;;;5116417;28;20631;-63
2021/06/10 08:24:22;;;;;;;1.63;1.52;;;23.70;55.60;;;;;;5116315;28;20267;-63
2021/06/10 08:26:48;;;;;;;2.67;1.80;;;23.70;55.60;;;;;;5115237;28;20620;-63
2021/06/10 08:29:14;;;;;;;1.77;1.67;;;23.70;55.60;;;;;;5116411;28;20653;-63
2021/06/10 08:31:39;;;;;;;2.05;1.90;;;23.70;55.50;;;;;;5115678;28;20178;-64
2021/06/10 08:34:05;;;;;;;1.70;1.60;;;23.70;55.60;;;;;;5115762;28;20169;-65
2021/06/10 08:36:30;;;;;;;1.90;1.70;;;23.80;55.70;;;;;;5115751;28;20623;-63
2021/06/10 08:38:57;;;;;;;2.58;1.83;;;23.80;55.70;;;;;;5115947;28;20177;-66
2021/06/10 08:41:24;;;;;;;2.97;1.98;;;23.80;55.70;;;;;;5112768;27;20169;-63
2021/06/10 08:43:51;;;;;;;3.92;2.10;;;23.80;55.70;;;;;;5115531;28;20180;-64
2021/06/10 08:46:16;;;;;;;1.90;1.80;;;23.90;55.70;;;;;;5097059;28;20352;-63
2021/06/10 08:48:49;;;;;;;3.38;1.85;;;23.80;55.70;;;;;;5080764;28;20642;-64
2021/06/10 08:51:14;;;;;;;2.30;2.10;;;23.80;55.60;;;;;;5115545;28;20638;-64
2021/06/10 08:53:40;;;;;;;2.55;2.03;;;23.80;55.60;;;;;;5114516;28;20180;-64
2021/06/10 08:56:05;;;;;;;3.10;2.03;;;23.80;55.60;;;;;;5115463;28;20173;-64
2021/06/10 08:58:31;;;;;;;3.20;2.00;;;23.80;55.60;;;;;;5115071;27;20173;-64
2021/06/10 09:00:57;;;;;;;3.20;1.90;;;23.90;55.60;;;;;;5114768;28;20223;-64
2021/06/10 09:03:24;;;;;;;1.90;1.77;;;23.90;55.60;;;;;;5115690;28;20173;-64
2021/06/10 09:06:03;;;;;;;1.85;1.70;;;23.90;55.50;;;;;;5115501;28;20521;-65
2021/06/10 09:08:28;;;;;;;2.10;1.88;;;23.90;55.40;;;;;;5113381;28;20177;-64
2021/06/10 09:11:19;;;;;;;3.17;2.13;;;23.90;55.30;;;;;;5115338;28;20180;-63
2021/06/10 09:13:47;;;;;;;2.10;1.77;;;24.00;55.40;;;;;;5115330;28;20170;-63
2021/06/10 09:16:35;;;;;;;2.38;2.15;;;24.00;56.00;;;;;;5114500;28;20165;-63
2021/06/10 09:19:11;;;;;;;2.15;1.80;;;24.00;55.30;;;;;;5115439;28;20334;-63
2021/06/10 09:21:43;;;;;;;4.93;2.22;;;24.00;55.30;;;;;;5114402;28;20188;-63
2021/06/10 09:24:28;;;;;;;2.05;1.90;;;24.00;55.30;;;;;;5115222;28;20264;-63
2021/06/10 09:27:12;;;;;;;2.08;1.70;;;24.10;55.30;;;;;;5114611;28;20511;-63
2021/06/10 09:29:38;;;;;;;1.58;1.48;;;24.10;55.30;;;;;;5114044;28;20177;-63
2021/06/10 09:32:04;;;;;;;2.33;1.70;;;24.10;55.30;;;;;;5114955;28;20234;-64
2021/06/10 09:34:44;;;;;;;2.08;1.88;;;24.10;55.30;;;;;;5114749;28;20173;-63
2021/06/10 09:37:11;;;;;;;1.90;1.73;;;24.10;55.30;;;;;;5114342;28;20172;-63
2021/06/10 09:39:55;;;;;;;1.50;1.40;;;24.10;55.30;;;;;;5114644;28;20212;-64
2021/06/10 09:42:39;;;;;;;1.98;1.83;;;24.10;55.30;;;;;;5114578;28;20169;-64
2021/06/10 09:45:07;;;;;;;2.20;2.00;;;24.10;55.30;;;;;;5114908;28;20205;-64
2021/06/10 09:47:35;;;;;;;1.80;1.70;;;24.10;55.30;;;;;;5114490;28;20177;-64
2021/06/10 09:50:15;;;;;;;1.75;1.65;;;24.20;55.30;;;;;;5095574;28;20269;-64
2021/06/10 09:52:45;;;;;;;2.20;2.00;;;24.10;55.30;;;;;;5114332;28;20172;-63
2021/06/10 09:55:32;;;;;;;2.28;1.73;;;24.20;55.30;;;;;;5114614;28;20177;-63
2021/06/10 09:58:05;;;;;;;2.15;2.03;;;24.20;55.30;;;;;;5096593;28;20249;-63
2021/06/10 10:00:31;;;;;;;2.05;1.88;;;24.20;55.30;;;;;;5114286;28;20279;-64
2021/06/10 10:02:56;;;;;;;2.70;2.00;;;24.20;55.30;;;;;;5114330;28;20245;-64
2021/06/10 10:05:23;;;;;;;1.65;1.55;;;24.20;55.30;;;;;;5113496;28;20169;-64
2021/06/10 10:07:48;;;;;;;2.67;1.67;;;24.20;55.30;;;;;;5114122;28;20183;-64
2021/06/10 10:10:15;;;;;;;2.33;2.13;;;24.20;55.30;;;;;;5079385;28;20177;-63
2021/06/10 10:12:43;;;;;;;5.20;1.90;;;24.20;55.30;;;;;;5113522;28;20255;-64
2021/06/10 10:15:09;;;;;;;3.28;1.88;;;24.20;55.30;;;;;;5114155;28;20178;-63
2021/06/10 10:17:34;;;;;;;2.80;1.83;;;24.20;55.30;;;;;;5113402;28;20176;-64
2021/06/10 10:20:00;;;;;;;2.25;1.65;;;24.20;55.30;;;;;;5078488;28;20593;-64
2021/06/10 10:22:25;;;;;;;3.35;1.88;;;24.30;55.30;;;;;;5096130;28;20173;-64
2021/06/10 10:24:54;;;;;;;3.45;1.85;;;24.30;55.30;;;;;;5078165;28;20628;-63
2021/06/10 10:27:21;;;;;;;5.55;2.35;;;24.30;55.30;;;;;;5096335;28;20169;-63
2021/06/10 10:29:47;;;;;;;2.08;1.60;;;24.30;55.30;;;;;;5113642;28;20165;-65
2021/06/10 10:32:20;;;;;;;3.13;1.98;;;24.30;55.40;;;;;;5112974;28;20177;-64
2021/06/10 10:34:46;;;;;;;1.75;1.52;;;24.30;55.30;;;;;;5096287;28;20177;-65
2021/06/10 10:37:25;;;;;;;3.92;2.45;;;24.30;55.30;;;;;;5095996;28;20630;-64
2021/06/10 10:39:58;;;;;;;5.68;1.98;;;24.40;55.30;;;;;;5112550;28;20656;-65
2021/06/10 10:42:37;;;;;;;4.53;2.05;;;24.30;55.30;;;;;;5113909;28;20184;-64
2021/06/10 10:45:23;;;;;;;2.67;2.03;;;24.30;55.30;;;;;;5113836;28;20172;-65
2021/06/10 10:47:49;;;;;;;6.07;1.98;;;24.40;55.20;;;;;;5113129;28;20591;-64
2021/06/10 10:50:18;;;;;;;4.00;1.95;;;24.30;55.20;;;;;;5113684;28;20193;-65
2021/06/10 10:52:54;;;;;;;3.67;2.00;;;24.30;55.20;;;;;;5095275;28;20173;-64
2021/06/10 10:55:27;;;;;;;2.00;1.75;;;24.30;55.30;;;;;;5113341;28;20524;-65
2021/06/10 10:58:10;;;;;;;2.22;2.00;;;24.30;55.30;;;;;;5079961;28;20706;-64
2021/06/10 11:00:55;;;;;;;2.28;1.90;;;24.30;55.30;;;;;;5112871;28;20575;-65
2021/06/10 11:03:32;;;;;;;2.17;1.60;;;24.30;55.20;;;;;;5113225;28;20593;-66
2021/06/10 11:06:01;;;;;;;2.78;1.80;;;24.30;55.80;;;;;;5113735;28;20180;-66
2021/06/10 11:08:59;;;;;;;2.33;2.13;;;24.30;55.20;;;;;;5112862;28;20188;-66
2021/06/10 11:11:49;;;;;;;2.03;1.88;;;24.30;55.20;;;;;;5113343;28;20212;-65
2021/06/10 11:14:36;;;;;;;2.75;1.80;;;24.40;55.20;;;;;;5112739;28;20195;-65
2021/06/10 11:17:14;;;;;;;3.53;2.25;;;24.40;55.20;;;;;;5113501;28;20184;-65
2021/06/10 11:19:53;;;;;;;2.17;1.92;;;24.30;55.10;;;;;;5112932;28;20249;-65
2021/06/10 11:22:45;;;;;;;1.73;1.63;;;24.40;55.20;;;;;;5112518;28;20541;-65
2021/06/10 11:25:17;;;;;;;2.50;1.58;;;24.40;55.10;;;;;;5110431;28;20223;-64
2021/06/10 11:27:44;;;;;;;2.85;1.88;;;24.40;55.10;;;;;;5113007;28;20169;-65
2021/06/10 11:30:17;;;;;;;2.22;1.77;;;24.40;55.10;;;;;;5112155;28;20740;-65
2021/06/10 11:32:57;;;;;;;3.35;1.90;;;24.50;55.10;;;;;;5115789;28;20695;-66
2021/06/10 11:35:57;;;;;;;2.22;1.77;;;24.40;55.00;;;;;;5116714;28;20246;-66
2021/06/10 11:38:27;;;;;;;2.60;2.40;;;24.40;55.00;;;;;;5117462;28;20172;-66
2021/06/10 11:40:53;;;;;;;2.15;2.00;;;24.50;55.00;;;;;;5116807;28;20208;-66
2021/06/10 11:43:19;;;;;;;1.98;1.88;;;24.50;55.00;;;;;;5116431;28;20172;-65
2021/06/10 11:45:46;;;;;;;1.80;1.70;;;24.50;55.00;;;;;;5117386;28;20196;-66
2021/06/10 11:48:11;;;;;;;1.98;1.77;;;24.50;54.90;;;;;;5117128;28;20304;-66
2021/06/10 11:50:38;;;;;;;1.88;1.73;;;24.50;54.90;;;;;;5115824;28;20192;-66
2021/06/10 11:53:09;;;;;;;2.22;2.03;;;24.50;54.90;;;;;;5117247;28;20173;-66
2021/06/10 11:55:36;;;;;;;2.17;1.77;;;24.50;54.90;;;;;;5116373;28;20220;-65
2021/06/10 11:58:03;;;;;;;2.08;1.85;;;24.50;54.90;;;;;;5115935;28;20220;-65
2021/06/10 12:00:31;;;;;;;2.30;1.92;;;24.50;54.90;;;;;;5117086;28;20233;-65
2021/06/10 12:02:57;;;;;;;2.40;1.73;;;24.50;54.80;;;;;;5117053;28;20197;-66
2021/06/10 12:05:23;;;;;;;2.45;2.22;;;24.50;54.80;;;;;;5115984;28;20606;-66
2021/06/10 12:07:49;;;;;;;2.00;1.88;;;24.50;54.70;;;;;;5116397;28;20256;-66
2021/06/10 12:10:19;;;;;;;1.90;1.80;;;24.50;54.70;;;;;;5115931;28;20177;-65
2021/06/10 12:12:46;;;;;;;2.13;2.03;;;24.50;54.70;;;;;;5116469;28;20173;-65
2021/06/10 12:15:22;;;;;;;1.90;1.80;;;24.50;54.70;;;;;;5116625;28;20181;-65
2021/06/10 12:17:58;;;;;;;2.20;2.00;;;24.50;54.70;;;;;;5115892;28;20169;-65
2021/06/10 12:20:25;;;;;;;2.30;2.10;;;24.50;54.60;;;;;;5116455;28;20288;-65
2021/06/10 12:22:50;;;;;;;1.60;1.50;;;24.50;54.60;;;;;;5098124;28;20230;-65
2021/06/10 12:25:16;;;;;;;2.38;1.73;;;24.50;54.60;;;;;;5115935;28;20177;-65
2021/06/10 12:27:42;;;;;;;1.88;1.70;;;24.60;54.60;;;;;;5116253;28;20241;-65
2021/06/10 12:30:31;;;;;;;2.10;1.50;;;24.60;54.50;;;;;;5116203;28;20215;-65
2021/06/10 12:33:17;;;;;;;2.53;1.92;;;24.60;54.50;;;;;;5115590;28;20294;-65
2021/06/10 12:35:46;;;;;;;1.95;1.85;;;24.60;54.30;;;;;;5115563;28;20590;-66
2021/06/10 12:38:15;;;;;;;1.83;1.73;;;24.70;55.00;;;;;;5097990;28;20545;-66
2021/06/10 12:40:43;;;;;;;2.28;2.03;;;24.70;54.20;;;;;;5115643;28;20217;-66
2021/06/10 12:43:23;;;;;;;2.03;1.70;;;24.70;54.20;;;;;;5097277;28;20256;-65
2021/06/10 12:45:49;;;;;;;1.70;1.60;;;24.80;54.20;;;;;;5115113;28;20181;-66
2021/06/10 12:48:25;;;;;;;1.80;1.70;;;24.80;54.20;;;;;;5116057;28;20222;-65
2021/06/10 12:50:55;;;;;;;2.28;2.08;;;24.80;54.00;;;;;;5115862;28;20230;-65
2021/06/10 12:53:21;;;;;;;1.70;1.60;;;24.80;53.90;;;;;;5096709;28;20166;-65